createdAt,value
2019-03-12T00:01:33.474Z,8.60
2019-03-12T00:03:38.658Z,8.60
2019-03-12T00:05:44.281Z,8.60
2019-03-12T00:07:50.054Z,8.50
2019-03-12T00:09:55.224Z,8.50
2019-03-12T00:12:00.206Z,8.50
2019-03-12T00:14:05.347Z,8.40
2019-03-12T00:16:10.345Z,8.40
2019-03-12T00:18:15.627Z,8.30
2019-03-12T00:20:21.400Z,8.30
2019-03-12T00:22:26.556Z,8.20
2019-03-12T00:24:31.993Z,8.20
2019-03-12T00:26:37.577Z,8.10
2019-03-12T00:28:42.745Z,8.10
2019-03-12T00:30:47.984Z,8.10
2019-03-12T00:32:55.756Z,8.00
2019-03-12T00:35:00.590Z,8.00
2019-03-12T00:37:05.800Z,7.90
2019-03-12T00:39:10.746Z,7.80
2019-03-12T00:41:15.618Z,7.80
2019-03-12T00:43:21.265Z,7.70
2019-03-12T00:45:26.411Z,7.70
2019-03-12T00:47:31.240Z,7.60
2019-03-12T00:49:36.752Z,7.60
2019-03-12T00:51:41.871Z,7.50
2019-03-12T00:53:47.320Z,7.40
2019-03-12T00:55:52.592Z,7.40
2019-03-12T00:57:58.061Z,7.30
2019-03-12T01:00:03.458Z,7.30
2019-03-12T01:02:08.767Z,7.20
2019-03-12T01:04:14.235Z,7.20
2019-03-12T01:06:19.477Z,7.10
2019-03-12T01:08:25.026Z,7.10
2019-03-12T01:10:30.413Z,7.00
2019-03-12T01:12:35.961Z,7.00
2019-03-12T01:14:40.898Z,7.00
2019-03-12T01:16:45.919Z,6.90
2019-03-12T01:18:50.850Z,6.90
2019-03-12T01:20:56.063Z,6.90
2019-03-12T01:23:00.907Z,6.80
2019-03-12T01:25:08.631Z,6.80
2019-03-12T01:27:13.495Z,6.80
2019-03-12T01:29:18.429Z,6.70
2019-03-12T01:31:23.744Z,6.70
2019-03-12T01:33:28.928Z,6.60
2019-03-12T01:35:33.949Z,6.60
2019-03-12T01:37:38.945Z,6.60
2019-03-12T01:39:44.607Z,6.50
2019-03-12T01:41:50.369Z,6.50
2019-03-12T01:43:55.818Z,6.50
2019-03-12T01:46:00.760Z,6.50
2019-03-12T01:48:05.844Z,6.40
2019-03-12T01:50:11.434Z,6.40
2019-03-12T01:52:16.339Z,6.40
2019-03-12T01:54:21.222Z,6.30
2019-03-12T01:56:26.437Z,6.30
2019-03-12T01:58:31.896Z,6.30
2019-03-12T02:00:45.910Z,6.30
2019-03-12T02:02:53.389Z,6.20
2019-03-12T02:05:01.261Z,6.20
2019-03-12T02:07:08.941Z,6.20
2019-03-12T02:09:15.924Z,6.10
2019-03-12T02:11:21.034Z,6.10
2019-03-12T02:13:26.726Z,6.10
2019-03-12T02:15:31.959Z,6.10
2019-03-12T02:17:37.373Z,6.10
2019-03-12T02:19:42.268Z,6.00
2019-03-12T02:21:48.326Z,6.00
2019-03-12T02:23:53.765Z,6.00
2019-03-12T02:25:59.040Z,6.00
2019-03-12T02:28:04.036Z,5.90
2019-03-12T02:30:12.439Z,5.90
2019-03-12T02:32:17.634Z,5.90
2019-03-12T02:34:23.386Z,5.90
2019-03-12T02:36:28.994Z,5.90
2019-03-12T02:38:34.479Z,5.80
2019-03-12T02:40:39.439Z,5.80
2019-03-12T02:42:44.736Z,5.80
2019-03-12T02:44:49.770Z,5.80
2019-03-12T02:46:55.102Z,5.80
2019-03-12T02:49:00.765Z,5.70
2019-03-12T02:51:06.518Z,5.70
2019-03-12T02:53:11.729Z,5.70
2019-03-12T02:55:16.943Z,5.70
2019-03-12T02:57:22.585Z,5.70
2019-03-12T02:59:27.713Z,5.60
2019-03-12T03:01:37.808Z,5.60
2019-03-12T03:03:43.319Z,5.60
2019-03-12T03:06:10.080Z,5.60
2019-03-12T03:08:15.645Z,5.60
2019-03-12T03:10:20.585Z,5.60
2019-03-12T03:12:25.482Z,5.60
2019-03-12T03:14:40.770Z,5.60
2019-03-12T03:16:46.041Z,5.60
2019-03-12T03:18:50.952Z,5.60
2019-03-12T03:20:55.819Z,5.60
2019-03-12T03:23:01.178Z,5.50
2019-03-12T03:25:08.360Z,5.50
2019-03-12T03:27:13.322Z,5.50
2019-03-12T03:29:18.897Z,5.50
2019-03-12T03:31:24.138Z,5.50
2019-03-12T03:33:29.132Z,5.50
2019-03-12T03:35:33.966Z,5.50
2019-03-12T03:37:39.582Z,5.50
2019-03-12T03:39:44.741Z,5.50
2019-03-12T03:41:50.308Z,5.40
2019-03-12T03:43:55.645Z,5.40
2019-03-12T03:46:00.977Z,5.40
2019-03-12T03:48:06.057Z,5.40
2019-03-12T03:50:11.368Z,5.40
2019-03-12T03:52:16.245Z,5.40
2019-03-12T03:54:21.271Z,5.40
2019-03-12T03:56:26.203Z,5.40
2019-03-12T03:58:31.752Z,5.40
2019-03-12T04:00:36.638Z,5.40
2019-03-12T04:02:41.502Z,5.40
2019-03-12T04:04:46.348Z,5.40
2019-03-12T04:06:51.829Z,5.30
2019-03-12T04:08:57.043Z,5.30
2019-03-12T04:11:01.910Z,5.30
2019-03-12T04:13:07.202Z,5.30
2019-03-12T04:15:12.707Z,5.30
2019-03-12T04:17:17.526Z,5.30
2019-03-12T04:19:22.765Z,5.30
2019-03-12T04:21:27.670Z,5.30
2019-03-12T04:23:32.622Z,5.30
2019-03-12T04:25:37.735Z,5.30
2019-03-12T04:27:43.086Z,5.30
2019-03-12T04:29:47.945Z,5.30
2019-03-12T04:31:52.917Z,5.20
2019-03-12T04:34:29.939Z,5.30
2019-03-12T04:36:54.054Z,5.30
2019-03-12T04:38:58.978Z,5.30
2019-03-12T04:41:03.904Z,5.30
2019-03-12T04:43:08.747Z,5.30
2019-03-12T04:45:15.671Z,5.30
2019-03-12T04:47:59.127Z,5.30
2019-03-12T04:50:04.489Z,5.30
2019-03-12T04:52:09.431Z,5.30
2019-03-12T04:54:14.330Z,5.30
2019-03-12T04:56:19.803Z,5.30
2019-03-12T04:58:25.770Z,5.30
2019-03-12T05:00:31.101Z,5.30
2019-03-12T05:02:35.943Z,5.30
2019-03-12T05:04:41.227Z,5.30
2019-03-12T05:06:46.389Z,5.30
2019-03-12T05:08:51.677Z,5.30
2019-03-12T05:10:56.891Z,5.30
2019-03-12T05:13:01.741Z,5.30
2019-03-12T05:15:10.203Z,5.30
2019-03-12T05:17:25.829Z,5.30
2019-03-12T05:19:30.930Z,5.30
2019-03-12T05:21:36.068Z,5.30
2019-03-12T05:23:41.638Z,5.30
2019-03-12T05:25:46.477Z,5.30
2019-03-12T05:27:51.655Z,5.30
2019-03-12T05:29:57.064Z,5.30
2019-03-12T05:32:01.913Z,5.30
2019-03-12T05:34:07.017Z,5.30
2019-03-12T05:36:12.149Z,5.30
2019-03-12T05:38:17.438Z,5.30
2019-03-12T05:40:22.274Z,5.30
2019-03-12T05:42:27.736Z,5.30
2019-03-12T05:44:33.254Z,5.30
2019-03-12T05:46:40.071Z,5.30
2019-03-12T05:48:45.039Z,5.30
2019-03-12T05:50:53.941Z,5.30
2019-03-12T05:53:14.421Z,5.30
2019-03-12T05:55:19.477Z,5.30
2019-03-12T05:57:24.766Z,5.30
2019-03-12T05:59:30.003Z,5.30
2019-03-12T06:01:35.128Z,5.30
2019-03-12T06:03:40.519Z,5.30
2019-03-12T06:05:45.665Z,5.30
2019-03-12T06:07:50.825Z,5.30
2019-03-12T06:09:56.498Z,5.30
2019-03-12T06:12:02.537Z,5.30
2019-03-12T06:16:16.815Z,5.30
2019-03-12T06:18:22.581Z,5.30
2019-03-12T06:20:28.214Z,5.30
2019-03-12T06:22:33.555Z,5.30
2019-03-12T06:24:38.918Z,5.30
2019-03-12T06:26:43.855Z,5.40
2019-03-12T06:28:49.025Z,5.40
2019-03-12T06:31:11.858Z,5.40
2019-03-12T06:33:24.298Z,5.40
2019-03-12T06:35:33.486Z,5.40
2019-03-12T06:37:47.490Z,5.40
2019-03-12T06:40:23.995Z,5.40
2019-03-12T06:42:54.803Z,5.40
2019-03-12T06:45:07.314Z,5.40
2019-03-12T06:47:37.640Z,5.40
2019-03-12T06:49:48.199Z,5.50
2019-03-12T06:52:12.820Z,5.40
2019-03-12T06:54:27.787Z,5.50
2019-03-12T06:56:58.129Z,5.50
2019-03-12T06:59:25.074Z,5.50
2019-03-12T07:01:42.396Z,5.50
2019-03-12T07:04:05.168Z,5.50
2019-03-12T07:06:28.192Z,5.60
2019-03-12T07:08:49.446Z,5.60
2019-03-12T07:11:03.864Z,5.60
2019-03-12T07:13:27.059Z,5.60
2019-03-12T07:15:40.821Z,5.60
2019-03-12T07:18:00.474Z,5.60
2019-03-12T07:20:27.063Z,5.60
2019-03-12T07:22:54.000Z,5.60
2019-03-12T07:25:04.365Z,5.70
2019-03-12T07:27:30.036Z,5.70
2019-03-12T07:29:49.615Z,5.70
2019-03-12T07:32:14.083Z,5.80
2019-03-12T07:34:37.039Z,5.80
2019-03-12T07:36:53.271Z,5.80
2019-03-12T07:39:05.932Z,5.90
2019-03-12T07:41:35.782Z,5.90
2019-03-12T07:44:03.216Z,5.90
2019-03-12T07:46:30.278Z,6.00
2019-03-12T07:48:54.496Z,6.00
2019-03-12T07:51:12.942Z,6.10
2019-03-12T07:53:29.250Z,6.20
2019-03-12T07:56:05.413Z,6.20
2019-03-12T07:58:36.237Z,6.20
2019-03-12T08:01:03.288Z,6.30
2019-03-12T08:03:19.460Z,6.40
2019-03-12T08:05:39.145Z,6.40
2019-03-12T08:08:09.352Z,6.50
2019-03-12T08:10:26.114Z,6.50
2019-03-12T08:12:40.524Z,6.60
2019-03-12T08:15:02.759Z,6.70
2019-03-12T08:17:25.910Z,6.70
2019-03-12T08:19:44.175Z,6.80
2019-03-12T08:22:14.095Z,6.90
2019-03-12T08:24:38.027Z,6.90
2019-03-12T08:26:53.117Z,7.00
2019-03-12T08:29:04.001Z,7.00
2019-03-12T08:31:26.150Z,7.10
2019-03-12T08:33:50.755Z,7.20
2019-03-12T08:36:20.755Z,7.20
2019-03-12T08:38:41.961Z,7.30
2019-03-12T08:40:57.438Z,7.40
2019-03-12T08:43:07.608Z,7.50
2019-03-12T08:45:49.924Z,7.50
2019-03-12T08:48:02.373Z,7.60
2019-03-12T08:50:16.595Z,7.60
2019-03-12T08:52:43.230Z,7.70
2019-03-12T08:55:25.613Z,7.70
2019-03-12T08:57:41.355Z,7.80
2019-03-12T09:00:11.625Z,7.90
2019-03-12T09:02:41.920Z,7.90
2019-03-12T09:05:09.474Z,8.00
2019-03-12T09:07:46.036Z,8.10
2019-03-12T09:09:57.034Z,8.20
2019-03-12T09:12:19.609Z,8.20
2019-03-12T09:14:42.674Z,8.30
2019-03-12T09:17:05.320Z,8.30
2019-03-12T09:19:29.567Z,8.40
2019-03-12T09:21:52.283Z,8.50
2019-03-12T09:24:08.965Z,8.50
2019-03-12T09:26:39.253Z,8.60
2019-03-12T09:29:03.770Z,8.70
2019-03-12T09:31:24.294Z,8.80
2019-03-12T09:33:48.158Z,8.80
2019-03-12T09:36:15.279Z,8.90
2019-03-12T09:38:28.545Z,9.00
2019-03-12T09:40:51.279Z,9.10
2019-03-12T09:43:14.130Z,9.20
2019-03-12T09:45:41.557Z,9.20
2019-03-12T09:47:53.293Z,9.30
2019-03-12T09:50:15.186Z,9.40
2019-03-12T09:52:39.393Z,9.50
2019-03-12T09:55:04.994Z,9.60
2019-03-12T09:57:15.839Z,9.60
2019-03-12T09:59:40.413Z,9.70
2019-03-12T10:02:04.619Z,9.70
2019-03-12T10:04:26.001Z,9.80
2019-03-12T10:06:43.604Z,9.90
2019-03-12T10:09:19.790Z,9.90
2019-03-12T10:11:41.815Z,10.00
2019-03-12T10:14:11.611Z,10.10
2019-03-12T10:16:34.694Z,10.20
2019-03-12T10:19:03.522Z,10.20
2019-03-12T10:21:29.077Z,10.30
2019-03-12T10:23:45.158Z,10.30
2019-03-12T10:26:09.107Z,10.40
2019-03-12T10:28:32.204Z,10.40
2019-03-12T10:30:58.181Z,10.50
2019-03-12T10:33:13.245Z,10.50
2019-03-12T10:35:28.087Z,10.60
2019-03-12T10:37:55.162Z,10.60
2019-03-12T10:40:14.885Z,10.60
2019-03-12T10:42:31.944Z,10.70
2019-03-12T10:44:47.016Z,10.70
2019-03-12T10:46:58.709Z,10.80
2019-03-12T10:49:04.022Z,10.80
2019-03-12T10:51:09.476Z,10.90
2019-03-12T10:53:14.923Z,10.90
2019-03-12T10:55:20.138Z,11.00
2019-03-12T10:57:25.669Z,11.00
2019-03-12T10:59:31.107Z,11.10
2019-03-12T11:01:37.204Z,11.10
2019-03-12T11:03:42.084Z,11.20
2019-03-12T11:05:47.468Z,11.20
2019-03-12T11:07:53.203Z,11.20
2019-03-12T11:09:58.147Z,11.20
2019-03-12T11:12:03.274Z,11.30
2019-03-12T11:14:08.713Z,11.30
2019-03-12T11:16:13.734Z,11.40
2019-03-12T11:18:18.606Z,11.40
2019-03-12T11:20:23.714Z,11.50
2019-03-12T11:22:28.720Z,11.50
2019-03-12T11:24:33.613Z,11.60
2019-03-12T11:26:38.573Z,11.60
2019-03-12T11:28:43.863Z,11.60
2019-03-12T11:30:49.202Z,11.70
2019-03-12T11:32:54.482Z,11.70
2019-03-12T11:34:59.460Z,11.70
2019-03-12T11:37:04.598Z,11.80
2019-03-12T11:39:10.165Z,11.90
2019-03-12T11:41:15.156Z,11.90
2019-03-12T11:43:20.420Z,12.00
2019-03-12T11:45:36.125Z,12.00
2019-03-12T11:47:32.717Z,12.10
2019-03-12T11:49:38.295Z,12.10
2019-03-12T11:51:43.635Z,12.20
2019-03-12T11:53:48.875Z,12.20
2019-03-12T11:55:54.306Z,12.20
2019-03-12T11:57:59.567Z,12.30
2019-03-12T12:00:06.408Z,12.30
2019-03-12T12:02:11.847Z,12.30
2019-03-12T12:04:17.072Z,12.40
2019-03-12T12:06:22.836Z,12.40
2019-03-12T12:08:27.777Z,12.40
2019-03-12T12:10:32.983Z,12.50
2019-03-12T12:12:40.197Z,12.50
2019-03-12T12:14:44.705Z,12.60
2019-03-12T12:16:49.943Z,12.60
2019-03-12T12:18:55.131Z,12.70
2019-03-12T12:21:00.100Z,12.70
2019-03-12T12:23:05.668Z,12.80
2019-03-12T12:25:12.318Z,12.80
2019-03-12T12:27:17.191Z,12.90
2019-03-12T12:29:22.320Z,12.90
2019-03-12T12:31:27.674Z,12.90
2019-03-12T12:33:32.917Z,13.00
2019-03-12T12:35:37.902Z,13.00
2019-03-12T12:37:43.103Z,13.00
2019-03-12T12:39:48.554Z,13.00
2019-03-12T12:41:54.064Z,13.00
2019-03-12T12:43:59.311Z,13.00
2019-03-12T12:46:04.236Z,13.00
2019-03-12T12:48:09.666Z,13.10
2019-03-12T12:50:15.785Z,13.00
2019-03-12T12:52:21.157Z,13.00
2019-03-12T12:54:26.609Z,13.10
2019-03-12T12:56:32.157Z,13.10
2019-03-12T12:58:37.740Z,13.10
2019-03-12T13:00:43.387Z,13.10
2019-03-12T13:02:48.961Z,13.10
2019-03-12T13:04:54.126Z,13.10
2019-03-12T13:06:59.104Z,13.10
2019-03-12T13:09:05.712Z,13.10
2019-03-12T13:11:10.766Z,13.10
2019-03-12T13:13:16.053Z,13.10
2019-03-12T13:15:21.144Z,13.20
2019-03-12T13:17:26.151Z,13.20
2019-03-12T13:19:31.222Z,13.20
2019-03-12T13:21:36.145Z,13.20
2019-03-12T13:23:41.099Z,13.20
2019-03-12T13:25:45.980Z,13.20
2019-03-12T13:27:51.071Z,13.20
2019-03-12T13:29:56.763Z,13.20
2019-03-12T13:32:13.079Z,13.20
2019-03-12T13:34:08.357Z,13.20
2019-03-12T13:36:16.617Z,13.30
2019-03-12T13:38:21.973Z,13.30
2019-03-12T13:40:27.767Z,13.30
2019-03-12T13:42:33.386Z,13.40
2019-03-12T13:44:38.482Z,13.40
2019-03-12T13:46:43.535Z,13.40
2019-03-12T13:48:48.477Z,13.40
2019-03-12T13:50:53.635Z,13.40
2019-03-12T13:52:58.806Z,13.50
2019-03-12T13:55:04.312Z,13.50
2019-03-12T13:57:09.630Z,13.50
2019-03-12T13:59:14.786Z,13.50
2019-03-12T14:01:19.854Z,13.50
2019-03-12T14:03:25.110Z,13.60
2019-03-12T14:05:30.344Z,13.60
2019-03-12T14:07:35.987Z,13.60
2019-03-12T14:09:40.987Z,13.60
2019-03-12T14:11:47.809Z,13.60
2019-03-12T14:13:53.392Z,13.60
2019-03-12T14:15:59.381Z,13.60
2019-03-12T14:18:05.305Z,13.60
2019-03-12T14:20:40.386Z,13.60
2019-03-12T14:22:50.124Z,13.70
2019-03-12T14:24:59.394Z,13.70
2019-03-12T14:27:04.762Z,13.60
2019-03-12T14:29:09.907Z,13.60
2019-03-12T14:31:15.564Z,13.70
2019-03-12T14:33:21.281Z,13.60
2019-03-12T14:35:26.225Z,13.70
2019-03-12T14:37:31.258Z,13.70
2019-03-12T14:39:36.706Z,13.60
2019-03-12T14:41:42.076Z,13.60
2019-03-12T14:43:47.808Z,13.70
2019-03-12T14:45:53.505Z,13.60
2019-03-12T14:47:59.041Z,13.60
2019-03-12T14:50:04.920Z,13.60
2019-03-12T14:52:24.725Z,13.60
2019-03-12T14:54:33.662Z,13.60
2019-03-12T14:56:39.113Z,13.60
2019-03-12T14:58:44.155Z,13.50
2019-03-12T15:00:49.193Z,13.50
2019-03-12T15:02:55.074Z,13.50
2019-03-12T15:05:00.125Z,13.40
2019-03-12T15:07:05.815Z,13.40
2019-03-12T15:09:14.328Z,13.40
2019-03-12T15:11:19.270Z,13.40
2019-03-12T15:13:24.270Z,13.30
2019-03-12T15:15:29.202Z,13.30
2019-03-12T15:17:35.179Z,13.30
2019-03-12T15:19:40.602Z,13.30
2019-03-12T15:21:45.712Z,13.20
2019-03-12T15:23:51.417Z,13.20
2019-03-12T15:25:56.764Z,13.20
2019-03-12T15:28:01.971Z,13.20
2019-03-12T15:30:12.138Z,13.10
2019-03-12T15:32:17.075Z,13.10
2019-03-12T15:34:22.186Z,13.10
2019-03-12T15:36:27.643Z,13.10
2019-03-12T15:38:33.408Z,13.10
2019-03-12T15:40:38.977Z,13.10
2019-03-12T15:42:43.986Z,13.10
2019-03-12T15:44:49.706Z,13.00
2019-03-12T15:46:54.687Z,13.00
2019-03-12T15:48:59.589Z,13.10
2019-03-12T15:51:04.695Z,13.00
2019-03-12T15:53:10.007Z,13.00
2019-03-12T15:55:15.007Z,13.00
2019-03-12T15:57:19.865Z,13.00
2019-03-12T15:59:24.967Z,13.00
2019-03-12T16:01:29.840Z,13.00
2019-03-12T16:03:35.045Z,13.00
2019-03-12T16:05:40.031Z,13.00
2019-03-12T16:07:45.843Z,12.90
2019-03-12T16:09:50.700Z,12.90
2019-03-12T16:11:56.690Z,12.90
2019-03-12T16:14:01.570Z,12.90
2019-03-12T16:16:06.826Z,12.90
2019-03-12T16:18:14.454Z,12.90
2019-03-12T16:20:18.707Z,12.90
2019-03-12T16:22:24.306Z,12.90
2019-03-12T16:24:29.304Z,12.90
2019-03-12T16:26:34.424Z,12.80
2019-03-12T16:28:40.410Z,12.80
2019-03-12T16:30:46.076Z,12.80
2019-03-12T16:32:51.302Z,12.80
2019-03-12T16:34:56.790Z,12.80
2019-03-12T16:37:02.013Z,12.80
2019-03-12T16:39:08.221Z,12.80
2019-03-12T16:41:13.552Z,12.80
2019-03-12T16:43:21.988Z,12.80
2019-03-12T16:45:25.887Z,12.70
2019-03-12T16:47:31.196Z,12.70
2019-03-12T16:49:36.157Z,12.70
2019-03-12T16:51:41.773Z,12.70
2019-03-12T16:53:47.340Z,12.70
2019-03-12T16:55:52.892Z,12.70
2019-03-12T16:57:58.111Z,12.70
2019-03-12T17:00:08.219Z,12.70
2019-03-12T17:02:10.134Z,12.60
2019-03-12T17:04:15.793Z,12.60
2019-03-12T17:06:21.151Z,12.60
2019-03-12T17:08:26.468Z,12.60
2019-03-12T17:10:31.703Z,12.60
2019-03-12T17:12:36.661Z,12.60
2019-03-12T17:14:41.852Z,12.60
2019-03-12T17:16:50.309Z,12.60
2019-03-12T17:18:55.284Z,12.60
2019-03-12T17:21:00.580Z,12.60
2019-03-12T17:23:05.483Z,12.50
2019-03-12T17:25:11.144Z,12.50
2019-03-12T17:27:16.136Z,12.50
2019-03-12T17:29:21.914Z,12.50
2019-03-12T17:31:27.162Z,12.50
2019-03-12T17:33:32.101Z,12.50
2019-03-12T17:35:37.128Z,12.50
2019-03-12T17:37:42.241Z,12.50
2019-03-12T17:39:47.898Z,12.50
2019-03-12T17:41:55.004Z,12.40
2019-03-12T17:43:59.899Z,12.40
2019-03-12T17:46:05.293Z,12.40
2019-03-12T17:48:10.926Z,12.40
2019-03-12T17:50:16.247Z,12.40
2019-03-12T17:52:21.891Z,12.40
2019-03-12T17:54:27.132Z,12.40
2019-03-12T17:56:32.843Z,12.40
2019-03-12T17:58:38.132Z,12.30
2019-03-12T18:00:44.320Z,12.30
2019-03-12T18:02:49.290Z,12.30
2019-03-12T18:04:54.687Z,12.30
2019-03-12T18:07:00.209Z,12.30
2019-03-12T18:09:08.758Z,12.30
2019-03-12T18:11:14.055Z,12.30
2019-03-12T18:13:19.547Z,12.30
2019-03-12T18:15:25.366Z,12.30
2019-03-12T18:17:30.630Z,12.30
2019-03-12T18:19:35.935Z,12.30
2019-03-12T18:21:41.209Z,12.30
2019-03-12T18:23:46.499Z,12.30
2019-03-12T18:25:51.631Z,12.30
2019-03-12T18:27:56.736Z,12.30
2019-03-12T18:30:01.960Z,12.30
2019-03-12T18:32:07.776Z,12.30
2019-03-12T18:34:15.943Z,12.30
2019-03-12T18:36:21.095Z,12.20
2019-03-12T18:38:26.157Z,12.20
2019-03-12T18:40:31.355Z,12.20
2019-03-12T18:42:36.568Z,12.20
2019-03-12T18:44:41.863Z,12.20
2019-03-12T18:46:46.717Z,12.20
2019-03-12T18:48:52.103Z,12.20
2019-03-12T18:50:57.415Z,12.20
2019-03-12T18:53:02.998Z,12.20
2019-03-12T18:55:09.619Z,12.20
2019-03-12T18:57:14.647Z,12.20
2019-03-12T18:59:19.875Z,12.20
2019-03-12T19:01:24.780Z,12.20
2019-03-12T19:03:29.995Z,12.20
2019-03-12T19:05:35.141Z,12.20
2019-03-12T19:07:40.414Z,12.20
2019-03-12T19:09:45.966Z,12.20
2019-03-12T19:11:51.231Z,12.20
2019-03-12T19:13:56.502Z,12.20
2019-03-12T19:16:02.128Z,12.20
2019-03-12T19:18:08.362Z,12.20
2019-03-12T19:20:13.690Z,12.20
2019-03-12T19:22:19.032Z,12.30
2019-03-12T19:24:24.496Z,12.30
2019-03-12T19:26:29.942Z,12.30
2019-03-12T19:28:34.973Z,12.20
2019-03-12T19:30:41.477Z,12.30
2019-03-12T19:32:56.375Z,12.30
2019-03-12T19:35:01.610Z,12.30
2019-03-12T19:37:07.225Z,12.30
2019-03-12T19:39:14.170Z,12.30
2019-03-12T19:41:19.426Z,12.30
2019-03-12T19:43:25.017Z,12.30
2019-03-12T19:45:30.501Z,12.30
2019-03-12T19:47:35.625Z,12.30
2019-03-12T19:49:41.010Z,12.40
2019-03-12T19:51:46.417Z,12.40
2019-03-12T19:53:51.776Z,12.40
2019-03-12T19:55:56.833Z,12.40
2019-03-12T19:58:12.607Z,12.40
2019-03-12T20:00:20.069Z,12.30
2019-03-12T20:02:25.643Z,12.30
2019-03-12T20:04:30.685Z,12.30
2019-03-12T20:06:36.493Z,12.30
2019-03-12T20:08:41.802Z,12.30
2019-03-12T20:12:08.895Z,12.30
2019-03-12T20:15:16.665Z,12.30
2019-03-12T20:18:17.188Z,12.30
2019-03-12T20:24:01.433Z,12.20
2019-03-12T20:27:09.872Z,12.10
2019-03-12T20:30:16.977Z,12.00
2019-03-12T20:33:58.846Z,11.90
2019-03-12T20:36:57.335Z,11.90
2019-03-12T20:39:56.660Z,11.80
2019-03-12T20:42:53.343Z,11.70
2019-03-12T20:45:40.663Z,11.70
2019-03-12T20:48:40.113Z,11.70
2019-03-12T20:52:01.010Z,11.60
2019-03-12T20:55:14.690Z,11.60
2019-03-12T20:58:20.851Z,11.50
2019-03-12T21:01:43.023Z,11.50
2019-03-12T21:04:50.162Z,11.50
2019-03-12T21:08:00.402Z,11.50
2019-03-12T21:11:12.939Z,11.40
2019-03-12T21:14:27.326Z,11.40
2019-03-12T21:17:23.454Z,11.40
2019-03-12T21:20:33.096Z,11.30
2019-03-12T21:23:22.403Z,11.30
2019-03-12T21:26:10.055Z,11.30
2019-03-12T21:28:54.052Z,11.30
2019-03-12T21:30:59.856Z,11.30
2019-03-12T21:33:14.779Z,11.30
2019-03-12T21:35:11.998Z,11.40
2019-03-12T21:37:17.276Z,11.40
2019-03-12T21:39:22.351Z,11.40
2019-03-12T21:41:27.384Z,11.50
2019-03-12T21:43:33.425Z,11.50
2019-03-12T21:45:39.012Z,11.60
2019-03-12T21:47:44.363Z,11.60
2019-03-12T21:49:49.813Z,11.60
2019-03-12T21:51:55.392Z,11.60
2019-03-12T21:54:00.413Z,11.60
2019-03-12T21:56:05.495Z,11.60
2019-03-12T21:58:10.628Z,11.60
2019-03-12T22:00:16.518Z,11.60
2019-03-12T22:02:21.966Z,11.50
2019-03-12T22:04:27.082Z,11.50
2019-03-12T22:06:32.480Z,11.40
2019-03-12T22:08:37.674Z,11.40
2019-03-12T22:10:42.646Z,11.30
2019-03-12T22:12:47.590Z,11.30
2019-03-12T22:14:52.574Z,11.20
2019-03-12T22:17:00.946Z,11.20
2019-03-12T22:19:06.380Z,11.10
2019-03-12T22:21:13.059Z,11.00
2019-03-12T22:23:31.635Z,11.00
2019-03-12T22:25:36.504Z,10.90
2019-03-12T22:27:41.798Z,10.90
2019-03-12T22:29:47.402Z,10.80
2019-03-12T22:31:52.292Z,10.80
2019-03-12T22:33:57.204Z,10.70
2019-03-12T22:36:02.797Z,10.70
2019-03-12T22:38:08.875Z,10.60
2019-03-12T22:40:13.941Z,10.60
2019-03-12T22:42:19.430Z,10.60
2019-03-12T22:44:24.581Z,10.50
2019-03-12T22:46:29.863Z,10.50
2019-03-12T22:48:35.447Z,10.50
2019-03-12T22:50:40.651Z,10.40
2019-03-12T22:52:45.806Z,10.40
2019-03-12T22:54:51.036Z,10.40
2019-03-12T22:56:56.433Z,10.30
2019-03-12T22:59:01.368Z,10.30
2019-03-12T23:01:06.749Z,10.30
2019-03-12T23:03:11.809Z,10.20
2019-03-12T23:05:17.085Z,10.20
2019-03-12T23:07:21.982Z,10.20
2019-03-12T23:09:27.460Z,10.10
2019-03-12T23:11:32.396Z,10.10
2019-03-12T23:13:37.654Z,10.10
2019-03-12T23:15:43.040Z,10.10
2019-03-12T23:17:48.095Z,10.00
2019-03-12T23:19:53.043Z,10.00
2019-03-12T23:21:58.529Z,10.00
2019-03-12T23:24:03.672Z,10.00
2019-03-12T23:26:09.205Z,9.90
2019-03-12T23:28:14.433Z,9.90
2019-03-12T23:30:19.506Z,9.90
2019-03-12T23:32:24.948Z,9.90
2019-03-12T23:34:29.993Z,9.90
2019-03-12T23:36:34.916Z,9.90
2019-03-12T23:38:39.933Z,9.80
2019-03-12T23:40:44.934Z,9.80
2019-03-12T23:42:50.091Z,9.80
2019-03-12T23:44:55.165Z,9.80
2019-03-12T23:47:00.612Z,9.80
2019-03-12T23:49:05.461Z,9.80
2019-03-12T23:51:11.026Z,9.70
2019-03-12T23:53:15.992Z,9.70
2019-03-12T23:55:21.542Z,9.70
2019-03-12T23:57:26.940Z,9.70
2019-03-12T23:59:32.157Z,9.70
